Tempiute, Nevada
Current Conditions -  °F | °C
As of 12:58 PM on Thursday 23 Oct 2014 (Local Time) from KINS Reporting Station
Few Clouds Few Clouds  
Wind Chill: 76°   Ceiling: Unl
Heat Index: 76°   Visibility: 10mi
Dew Point: 27°   Wind: 3mph
Humidity: 16%   Direction: NA
Pressure: 30.09"   Gusts: NA
Location:  37.3772°N, 115.475°W
Report Text: KINS 231958Z AUTO VRB03KT 10SM FEW190 24/M03 A3009 RMK AO2 SLP156 T02431028
Loading
Personal Weather Stations






























Interactive Weather Map
Tropical Storm Tracking
New forecast layout! Learn more

10-Day Weather Forecast

Advertisements
Track Severe Weather on mobile